createdAt,value
2022-09-06T00:11:32.529Z,98.5
2022-09-06T00:41:49.876Z,98.5
2022-09-06T01:12:06.899Z,99.5
2022-09-06T01:42:25.291Z,96.2
2022-09-06T02:12:46.341Z,99.2
2022-09-06T02:43:04.080Z,99.90001
2022-09-06T03:13:19.073Z,99.90001
2022-09-06T03:43:35.538Z,99.90001
2022-09-06T04:13:53.891Z,99.90001
2022-09-06T04:44:08.672Z,99.90001
2022-09-06T05:14:26.811Z,99.90001
2022-09-06T05:44:45.359Z,99.90001
2022-09-06T06:15:05.174Z,99.90001
2022-09-06T06:45:26.395Z,99.90001
2022-09-06T07:15:49.156Z,99.90001
2022-09-06T07:46:12.919Z,97.6
2022-09-06T08:16:39.099Z,90.5
2022-09-06T08:47:04.868Z,73.9
2022-09-06T09:17:28.966Z,61
2022-09-06T09:47:54.859Z,55.3
2022-09-06T10:18:16.619Z,52.8
2022-09-06T10:48:37.864Z,51.1
2022-09-06T11:18:59.187Z,47.3
2022-09-06T11:49:20.816Z,46
2022-09-06T12:19:44.115Z,44.9
2022-09-06T12:50:01.917Z,43.1
2022-09-06T13:20:18.276Z,44.8
2022-09-06T13:50:16.011Z,56.7
2022-09-06T14:20:22.900Z,60.9
2022-09-06T14:50:39.713Z,59.3
2022-09-06T15:20:56.467Z,63.3
2022-09-06T15:51:13.048Z,55.2
2022-09-06T16:21:28.759Z,57
2022-09-06T16:51:41.240Z,77.6
2022-09-06T17:21:56.411Z,99.90001
2022-09-06T17:52:10.607Z,99.90001
2022-09-06T18:22:28.870Z,99.90001
2022-09-06T18:52:46.277Z,99.90001
2022-09-06T19:23:03.410Z,99.90001
2022-09-06T19:53:19.569Z,99.90001
2022-09-06T20:23:36.040Z,99.90001
2022-09-06T20:53:55.166Z,99.90001
2022-09-06T21:24:12.092Z,99.90001
2022-09-06T21:54:30.905Z,99.90001
2022-09-06T22:24:47.274Z,99.90001
2022-09-06T22:55:04.667Z,99.90001
2022-09-06T23:25:23.597Z,99.90001
2022-09-06T23:55:40.657Z,99.90001
